Time;durP1;ratioP1;P1;durP2;ratioP2;P2;SDS_P1;SDS_P2;PMS_P1;PMS_P2;Temp;Humidity;BMP_temperature;BMP_pressure;BME280_temperature;BME280_humidity;BME280_pressure;Samples;Min_cycle;Max_cycle;Signal;HPM_P1;HPM_P2
2021/01/10 00:01:20;;;;;;;;;25.50;25.50;;;;;17.42;55.83;99457.66;5062817;28;11538;-67
2021/01/10 00:03:49;;;;;;;;;24.00;20.25;;;;;17.34;55.03;99455.69;5062180;28;11482;-67
2021/01/10 00:06:17;;;;;;;;;24.00;22.50;;;;;17.35;55.81;99465.25;5063287;28;11446;-68
2021/01/10 00:08:45;;;;;;;;;25.50;24.25;;;;;17.34;56.52;99462.88;5063203;28;11533;-68
2021/01/10 00:11:14;;;;;;;;;21.75;21.50;;;;;17.31;56.93;99456.25;5064747;28;11507;-69
2021/01/10 00:13:43;;;;;;;;;25.00;23.25;;;;;17.34;56.40;99474.34;5043201;28;12747;-68
2021/01/10 00:16:11;;;;;;;;;30.25;28.00;;;;;17.36;56.39;99480.19;5060538;28;11411;-68
2021/01/10 00:18:39;;;;;;;;;27.25;24.00;;;;;17.36;56.18;99480.19;5060904;28;11564;-68
2021/01/10 00:21:07;;;;;;;;;20.50;19.00;;;;;17.36;55.85;99479.38;5062684;28;11427;-68
2021/01/10 00:23:35;;;;;;;;;21.25;21.25;;;;;17.42;54.35;99505.66;5063172;28;11442;-68
2021/01/10 00:26:04;;;;;;;;;19.75;18.75;;;;;17.30;54.15;99486.69;5063429;28;11474;-68
2021/01/10 00:28:32;;;;;;;;;20.00;19.00;;;;;17.37;53.59;99505.75;5066262;28;11445;-68
2021/01/10 00:31:00;;;;;;;;;23.00;18.00;;;;;17.23;55.48;99507.59;5066074;28;11405;-68
2021/01/10 00:33:29;;;;;;;;;20.50;18.75;;;;;17.26;54.80;99515.78;5061280;28;11429;-67
2021/01/10 00:35:57;;;;;;;;;16.00;15.00;;;;;17.28;54.07;99512.84;5073052;28;11432;-67
2021/01/10 00:38:25;;;;;;;;;23.25;17.50;;;;;17.25;53.76;99527.53;5071866;28;11404;-68
2021/01/10 00:40:54;;;;;;;;;17.75;15.25;;;;;17.25;53.81;99527.53;5061972;28;11447;-68
2021/01/10 00:43:22;;;;;;;;;14.00;12.75;;;;;17.26;54.53;99526.47;5060523;28;11537;-68
2021/01/10 00:45:50;;;;;;;;;19.50;13.75;;;;;17.34;54.64;99533.00;5043786;28;11590;-68
2021/01/10 00:48:18;;;;;;;;;16.25;13.00;;;;;17.35;53.86;99542.59;5060456;28;11424;-70
2021/01/10 00:50:47;;;;;;;;;17.00;15.00;;;;;17.40;53.63;99542.50;5061426;28;11395;-68
2021/01/10 00:53:16;;;;;;;;;13.00;12.75;;;;;17.48;52.93;99547.19;5060443;28;11451;-68
2021/01/10 00:55:44;;;;;;;;;20.75;19.00;;;;;17.54;53.83;99550.56;5058898;28;11418;-68
2021/01/10 00:58:12;;;;;;;;;15.75;12.25;;;;;17.58;53.84;99555.00;5059567;28;11508;-68
2021/01/10 01:00:41;;;;;;;;;18.25;14.25;;;;;17.67;52.72;99563.16;5055667;28;11427;-68
2021/01/10 01:03:09;;;;;;;;;11.00;9.50;;;;;17.75;53.23;99567.81;5058048;28;11587;-68
2021/01/10 01:05:38;;;;;;;;;13.50;13.50;;;;;17.81;52.85;99565.84;5067515;28;11413;-67
2021/01/10 01:08:07;;;;;;;;;8.25;6.50;;;;;17.80;52.60;99562.41;5063983;28;11411;-67
2021/01/10 01:10:35;;;;;;;;;18.25;13.75;;;;;17.86;52.45;99585.25;5061016;28;11428;-67
2021/01/10 01:13:04;;;;;;;;;12.00;11.50;;;;;17.79;53.12;99576.81;5060729;28;11510;-67
2021/01/10 01:15:32;;;;;;;;;12.00;11.50;;;;;17.89;53.02;99590.00;5057811;28;11446;-67
2021/01/10 01:18:01;;;;;;;;;17.50;17.50;;;;;17.85;53.54;99577.53;5051806;28;11475;-68
2021/01/10 01:20:30;;;;;;;;;15.00;12.50;;;;;17.85;52.82;99580.19;5059512;28;11557;-67
2021/01/10 01:22:58;;;;;;;;;12.00;12.00;;;;;18.00;52.40;99587.94;5065195;28;11470;-67
2021/01/10 01:25:43;;;;;;;;;8.00;7.50;;;;;18.05;52.56;99590.50;5061834;28;11389;-67
2021/01/10 01:28:12;;;;;;;;;8.25;8.00;;;;;18.16;52.34;99594.59;5064472;28;11391;-67
2021/01/10 01:30:40;;;;;;;;;13.75;12.50;;;;;18.23;52.28;99600.28;5066837;28;11359;-72
2021/01/10 01:33:09;;;;;;;;;15.75;14.25;;;;;18.32;52.58;99602.28;5062890;28;11449;-68
2021/01/10 01:35:38;;;;;;;;;19.75;19.25;;;;;18.34;52.18;99600.09;5063517;28;11428;-71
2021/01/10 01:38:06;;;;;;;;;17.25;15.50;;;;;18.36;52.44;99605.94;5054369;28;12156;-69
2021/01/10 01:40:35;;;;;;;;;14.25;12.75;;;;;18.38;52.13;99607.22;5061935;28;11566;-69
2021/01/10 01:43:07;;;;;;;;;12.75;12.25;;;;;18.39;52.10;99608.81;5062340;28;11423;-68
2021/01/10 01:45:35;;;;;;;;;14.75;13.00;;;;;18.48;52.16;99616.91;5062820;28;11422;-70
2021/01/10 01:48:04;;;;;;;;;16.00;13.25;;;;;18.50;52.03;99623.56;5060290;28;11431;-70
2021/01/10 01:50:33;;;;;;;;;14.25;11.25;;;;;18.53;51.82;99614.94;5044599;28;11412;-69
2021/01/10 01:53:02;;;;;;;;;11.00;11.00;;;;;18.63;51.74;99623.88;5036859;28;11463;-69
2021/01/10 01:55:30;;;;;;;;;9.25;8.50;;;;;18.68;51.58;99631.78;5052593;28;11482;-68
2021/01/10 01:57:59;;;;;;;;;15.00;9.50;;;;;18.72;51.59;99633.56;5043031;28;11952;-68
2021/01/10 02:00:27;;;;;;;;;9.00;9.00;;;;;18.73;51.17;99629.81;5060884;28;11125;-69
2021/01/10 02:02:55;;;;;;;;;8.25;8.25;;;;;18.81;51.40;99634.44;5062393;28;11121;-68
2021/01/10 02:05:27;;;;;;;;;8.50;8.00;;;;;18.88;50.94;99637.50;5060404;28;11301;-69
2021/01/10 02:08:04;;;;;;;;;6.50;6.50;;;;;18.92;50.93;99631.56;5056963;28;11904;-68
2021/01/10 02:10:37;;;;;;;;;5.00;2.25;;;;;18.97;50.81;99634.91;5062108;28;11169;-69
2021/01/10 02:13:11;;;;;;;;;9.25;7.00;;;;;19.01;50.95;99632.44;5062024;28;11072;-69
2021/01/10 02:15:42;;;;;;;;;12.00;8.50;;;;;19.07;50.53;99629.34;5060363;28;11151;-68
2021/01/10 02:18:11;;;;;;;;;10.25;8.50;;;;;19.08;50.29;99630.16;5060263;28;11042;-69
2021/01/10 02:20:40;;;;;;;;;6.75;6.75;;;;;19.06;50.66;99626.97;5062705;28;11143;-69
2021/01/10 02:23:30;;;;;;;;;7.75;7.75;;;;;19.04;50.63;99629.97;5060399;28;11155;-70
2021/01/10 02:25:59;;;;;;;;;11.75;7.25;;;;;19.05;50.76;99642.22;5061986;28;12297;-69
2021/01/10 02:28:31;;;;;;;;;6.75;6.75;;;;;19.09;50.63;99631.72;5066518;28;11115;-68
2021/01/10 02:31:05;;;;;;;;;8.00;7.00;;;;;19.15;50.61;99636.66;5070974;28;11087;-70
2021/01/10 02:33:55;;;;;;;;;9.00;6.25;;;;;19.20;50.63;99636.56;5070068;28;11063;-68
2021/01/10 02:36:36;;;;;;;;;8.00;6.00;;;;;19.25;50.45;99642.88;5071116;28;10948;-67
2021/01/10 02:39:19;;;;;;;;;6.25;6.25;;;;;19.30;50.51;99632.06;5053725;28;11033;-68
2021/01/10 02:42:00;;;;;;;;;6.00;6.00;;;;;19.37;50.45;99633.25;5071554;28;10860;-68
2021/01/10 02:44:37;;;;;;;;;8.00;6.25;;;;;19.41;50.23;99628.88;5061708;28;11207;-68
2021/01/10 02:47:07;;;;;;;;;5.25;5.25;;;;;19.48;50.18;99623.88;5056299;28;10803;-68
2021/01/10 02:49:35;;;;;;;;;6.75;6.25;;;;;19.52;50.17;99613.34;5051225;28;10791;-68
2021/01/10 02:52:04;;;;;;;;;5.25;4.00;;;;;19.64;50.10;99620.84;5056260;28;10881;-68
2021/01/10 02:54:33;;;;;;;;;7.75;7.25;;;;;19.71;50.16;99624.66;5061951;28;11014;-68
2021/01/10 02:57:18;;;;;;;;;5.00;5.00;;;;;19.74;49.86;99621.38;5065492;28;10841;-68
2021/01/10 02:59:50;;;;;;;;;7.00;6.00;;;;;19.81;49.98;99620.94;5065320;28;11397;-68
2021/01/10 03:02:20;;;;;;;;;8.50;8.00;;;;;19.82;49.85;99623.31;5062480;28;10721;-68
2021/01/10 03:04:50;;;;;;;;;8.25;8.00;;;;;19.84;49.95;99623.81;5060197;28;10811;-68
2021/01/10 03:07:19;;;;;;;;;9.25;7.25;;;;;19.79;49.96;99613.22;5067136;28;10810;-68
2021/01/10 03:09:47;;;;;;;;;6.25;5.50;;;;;19.90;49.73;99613.75;5064634;28;10826;-68
2021/01/10 03:12:27;;;;;;;;;6.75;6.75;;;;;19.95;49.70;99616.31;5065550;28;10843;-68
2021/01/10 03:15:03;;;;;;;;;8.75;7.50;;;;;20.06;49.55;99619.50;5058768;28;10744;-68
2021/01/10 03:17:42;;;;;;;;;10.50;10.50;;;;;20.07;49.50;99619.22;5052971;28;10824;-68
2021/01/10 03:20:14;;;;;;;;;10.50;9.25;;;;;20.14;49.52;99624.91;5074557;28;10778;-68
2021/01/10 03:22:45;;;;;;;;;6.75;6.75;;;;;20.16;49.49;99616.56;5074529;28;10789;-68
2021/01/10 03:25:19;;;;;;;;;8.00;7.00;;;;;20.14;49.54;99602.69;5074462;28;10769;-68
2021/01/10 03:27:48;;;;;;;;;5.00;4.25;;;;;20.25;49.42;99624.66;5071471;28;10693;-67
2021/01/10 03:30:18;;;;;;;;;7.50;6.75;;;;;20.26;49.31;99623.53;5063299;28;10512;-67
2021/01/10 03:32:47;;;;;;;;;8.50;7.00;;;;;20.15;48.85;99604.28;5064640;28;10716;-68
2021/01/10 03:35:17;;;;;;;;;8.25;6.00;;;;;20.22;49.27;99615.34;5064920;28;10645;-67
2021/01/10 03:37:45;;;;;;;;;8.75;5.50;;;;;20.27;49.40;99603.69;5068401;28;10725;-67
2021/01/10 03:40:15;;;;;;;;;7.00;7.00;;;;;20.35;49.19;99608.28;5072578;28;10555;-68
2021/01/10 03:42:43;;;;;;;;;5.00;5.00;;;;;20.40;49.06;99616.22;5063839;28;10614;-68
2021/01/10 03:45:14;;;;;;;;;6.75;6.00;;;;;20.47;49.47;99606.63;5068406;28;10672;-67
2021/01/10 03:47:43;;;;;;;;;5.75;5.75;;;;;20.54;49.28;99603.50;5070685;28;10503;-68
2021/01/10 03:50:12;;;;;;;;;9.75;7.75;;;;;20.52;49.05;99597.66;5067340;28;10665;-67
2021/01/10 03:52:40;;;;;;;;;9.50;7.00;;;;;20.63;48.98;99600.84;5056190;28;10443;-68
2021/01/10 03:55:09;;;;;;;;;9.00;7.75;;;;;20.67;49.28;99599.91;5056343;28;10609;-68
2021/01/10 03:57:39;;;;;;;;;7.75;4.75;;;;;20.69;48.49;99592.34;5053929;28;10699;-68
2021/01/10 04:00:10;;;;;;;;;5.25;5.25;;;;;20.74;48.57;99580.69;5056197;28;10480;-67
2021/01/10 04:02:39;;;;;;;;;6.75;5.25;;;;;20.74;48.94;99578.00;5053397;28;10459;-68
2021/01/10 04:05:08;;;;;;;;;5.00;5.00;;;;;20.80;48.77;99574.06;5053647;28;10589;-68
2021/01/10 04:07:36;;;;;;;;;6.25;6.00;;;;;20.78;48.60;99566.34;5053087;28;10537;-67
2021/01/10 04:10:05;;;;;;;;;3.00;2.00;;;;;20.80;48.67;99571.38;5053751;28;10445;-68
2021/01/10 04:12:34;;;;;;;;;4.75;4.25;;;;;20.78;48.47;99558.28;5053465;28;10431;-67
2021/01/10 04:15:04;;;;;;;;;5.25;5.00;;;;;20.85;48.68;99553.22;5053470;28;10376;-67
2021/01/10 04:17:33;;;;;;;;;6.50;6.00;;;;;20.90;48.60;99551.50;5064759;28;10486;-68
2021/01/10 04:20:03;;;;;;;;;4.75;4.75;;;;;20.92;48.55;99542.03;5064709;28;10473;-67
2021/01/10 04:22:32;;;;;;;;;10.50;9.00;;;;;20.98;48.17;99548.03;5062380;28;10457;-67
2021/01/10 04:25:00;;;;;;;;;10.00;7.75;;;;;21.03;48.30;99537.13;5061971;28;11269;-68
2021/01/10 04:27:28;;;;;;;;;7.00;7.00;;;;;21.08;48.33;99535.09;5062115;28;10392;-68
2021/01/10 04:29:58;;;;;;;;;7.75;7.75;;;;;21.06;48.20;99526.56;5064255;28;11095;-68
2021/01/10 04:32:26;;;;;;;;;7.50;7.50;;;;;21.15;48.13;99513.16;5062138;28;10426;-68
2021/01/10 04:34:54;;;;;;;;;7.00;7.00;;;;;21.18;48.05;99502.56;5061975;28;10404;-68
2021/01/10 04:37:22;;;;;;;;;5.75;5.75;;;;;21.26;48.07;99511.75;5062071;28;10516;-68
2021/01/10 04:39:53;;;;;;;;;4.50;4.50;;;;;21.32;48.18;99498.94;5056154;28;10315;-70
2021/01/10 04:42:22;;;;;;;;;6.75;6.75;;;;;21.38;47.88;99495.78;5053033;28;10432;-70
2021/01/10 04:44:51;;;;;;;;;6.25;6.25;;;;;21.43;48.19;99481.41;5051968;28;10468;-74
2021/01/10 04:47:21;;;;;;;;;6.50;6.25;;;;;21.53;47.60;99485.63;5051424;28;10379;-71
2021/01/10 04:49:50;;;;;;;;;5.25;4.50;;;;;21.58;47.91;99477.41;5052184;28;10393;-70
2021/01/10 04:52:20;;;;;;;;;8.00;6.00;;;;;21.65;48.00;99467.75;5051145;28;10231;-71
2021/01/10 04:54:51;;;;;;;;;6.50;6.00;;;;;21.69;47.60;99471.34;5052013;28;10227;-70
2021/01/10 04:57:21;;;;;;;;;6.00;6.00;;;;;21.70;47.61;99458.72;5071912;28;10351;-71
2021/01/10 04:59:51;;;;;;;;;2.00;2.00;;;;;21.73;47.02;99455.38;5072070;28;10213;-70
2021/01/10 05:02:27;;;;;;;;;6.75;6.75;;;;;21.72;47.13;99426.97;5072381;28;10235;-73
2021/01/10 05:04:56;;;;;;;;;11.00;9.25;;;;;21.89;47.68;99432.25;5072326;28;10369;-70
2021/01/10 05:07:30;;;;;;;;;11.25;9.00;;;;;21.94;47.53;99434.75;5072213;28;10386;-69
2021/01/10 05:09:58;;;;;;;;;10.25;8.00;;;;;21.96;47.46;99418.31;5072640;28;10539;-70
2021/01/10 05:12:28;;;;;;;;;9.00;9.00;;;;;22.00;47.47;99414.63;5064458;28;10283;-70
2021/01/10 05:14:56;;;;;;;;;9.00;7.00;;;;;21.94;46.97;99391.78;5066501;28;10383;-71
2021/01/10 05:17:24;;;;;;;;;9.00;8.00;;;;;22.06;46.97;99397.25;5041717;28;10150;-70
2021/01/10 05:19:54;;;;;;;;;7.00;6.50;;;;;22.10;47.35;99384.72;5071430;28;10391;-70
2021/01/10 05:22:22;;;;;;;;;8.00;8.00;;;;;22.22;47.17;99375.94;5072307;28;10207;-71
2021/01/10 05:24:50;;;;;;;;;8.00;8.00;;;;;22.13;47.03;99362.56;5065372;28;10213;-71
2021/01/10 05:27:19;;;;;;;;;7.00;7.00;;;;;22.25;46.73;99367.22;5052539;28;10338;-70
2021/01/10 05:29:47;;;;;;;;;10.50;8.00;;;;;22.26;47.00;99366.09;5057502;28;10307;-69
2021/01/10 05:32:19;;;;;;;;;8.00;7.50;;;;;22.27;46.79;99356.13;5064858;28;10700;-69
2021/01/10 05:34:59;;;;;;;;;8.50;8.50;;;;;22.27;46.03;99348.06;5052508;28;10161;-68
2021/01/10 05:37:29;;;;;;;;;7.00;7.00;;;;;22.34;46.60;99342.94;5057660;28;10086;-69
2021/01/10 05:39:58;;;;;;;;;7.50;7.50;;;;;22.35;46.06;99337.25;5058381;28;10261;-68
2021/01/10 05:42:30;;;;;;;;;8.50;8.00;;;;;22.41;46.54;99324.38;5052293;28;10087;-67
2021/01/10 05:44:59;;;;;;;;;10.50;8.75;;;;;22.48;46.49;99327.31;5052129;28;10093;-67
2021/01/10 05:47:39;;;;;;;;;10.00;8.75;;;;;22.57;46.87;99321.88;5051986;28;10064;-67
2021/01/10 05:50:15;;;;;;;;;7.00;7.00;;;;;22.62;45.58;99306.31;5050407;28;10152;-67
2021/01/10 05:52:44;;;;;;;;;11.25;10.00;;;;;22.70;45.81;99302.75;5050904;28;10172;-67
2021/01/10 05:55:12;;;;;;;;;9.00;7.50;;;;;22.80;45.83;99303.47;5051291;28;9987;-67
2021/01/10 05:57:41;;;;;;;;;6.00;6.00;;;;;22.86;45.57;99289.47;5051655;28;10625;-67
2021/01/10 06:00:10;;;;;;;;;7.50;5.75;;;;;22.96;45.17;99283.66;5051549;28;9941;-68
2021/01/10 06:02:39;;;;;;;;;6.00;5.50;;;;;23.06;46.41;99277.81;5051890;28;9855;-67
2021/01/10 06:05:18;;;;;;;;;5.00;5.00;;;;;23.13;46.54;99266.50;5051953;28;9738;-71
2021/01/10 06:07:48;;;;;;;;;8.00;8.00;;;;;23.19;46.40;99267.06;5051874;28;9816;-71
2021/01/10 06:10:30;;;;;;;;;8.00;7.50;;;;;23.14;46.42;99259.22;5051770;28;9917;-71
2021/01/10 06:13:08;;;;;;;;;6.75;6.75;;;;;23.14;46.29;99260.00;5052216;28;9897;-68
2021/01/10 06:15:36;;;;;;;;;9.75;9.75;;;;;23.16;46.10;99254.28;5051864;28;9801;-68
2021/01/10 06:18:06;;;;;;;;;9.00;9.00;;;;;23.12;44.88;99232.63;5051908;28;10536;-68
2021/01/10 06:20:34;;;;;;;;;6.75;6.75;;;;;23.25;46.07;99231.50;5051968;28;9838;-67
2021/01/10 06:23:07;;;;;;;;;9.25;6.25;;;;;23.32;44.96;99231.72;5051707;28;9750;-67
2021/01/10 06:25:40;;;;;;;;;7.00;7.00;;;;;23.40;45.03;99225.41;5051651;28;9684;-67
2021/01/10 06:28:12;;;;;;;;;7.75;6.00;;;;;23.51;45.50;99208.78;5051143;28;9684;-67
2021/01/10 06:31:01;;;;;;;;;11.75;11.75;;;;;23.62;45.57;99212.59;5068331;28;9567;-67
2021/01/10 06:33:32;;;;;;;;;9.00;9.00;;;;;23.63;45.40;99198.00;5063570;28;9927;-67
2021/01/10 06:36:08;;;;;;;;;6.75;5.75;;;;;23.71;44.38;99202.44;5063425;28;9857;-67
2021/01/10 06:38:38;;;;;;;;;7.25;7.25;;;;;23.77;45.86;99198.38;5061761;28;9648;-67
2021/01/10 06:41:25;;;;;;;;;11.50;7.75;;;;;23.77;45.78;99176.06;5060711;28;9595;-68
2021/01/10 06:43:59;;;;;;;;;8.25;8.25;;;;;23.83;45.69;99180.06;5062086;28;9517;-67
2021/01/10 06:46:28;;;;;;;;;9.50;7.00;;;;;23.84;44.78;99177.03;5069979;28;9691;-67
2021/01/10 06:48:57;;;;;;;;;10.25;8.00;;;;;23.87;45.43;99176.34;5068583;28;9538;-68
2021/01/10 06:51:29;;;;;;;;;6.25;6.25;;;;;23.92;45.38;99173.41;5064926;28;9525;-67
2021/01/10 06:54:04;;;;;;;;;6.00;6.00;;;;;23.95;45.45;99167.31;5061498;28;10354;-68
2021/01/10 06:56:33;;;;;;;;;11.75;9.50;;;;;23.96;45.33;99163.50;5064042;28;9525;-68
2021/01/10 06:59:08;;;;;;;;;10.75;8.00;;;;;23.99;44.05;99164.72;5062798;28;9606;-67
2021/01/10 07:01:48;;;;;;;;;12.75;10.50;;;;;24.07;45.46;99155.69;5065497;28;9580;-68
2021/01/10 07:04:24;;;;;;;;;13.75;11.75;;;;;24.14;45.45;99144.31;5061795;28;10380;-67
2021/01/10 07:06:54;;;;;;;;;12.00;12.00;;;;;24.24;44.56;99141.09;5042728;28;9848;-67
2021/01/10 07:09:22;;;;;;;;;9.50;9.50;;;;;24.28;43.67;99133.91;5061214;28;9663;-68
2021/01/10 07:11:51;;;;;;;;;11.75;11.00;;;;;24.40;45.01;99136.53;5063139;28;9555;-67
2021/01/10 07:14:24;;;;;;;;;12.75;11.50;;;;;24.47;44.25;99139.41;5062310;28;9564;-68
2021/01/10 07:17:10;;;;;;;;;11.00;11.00;;;;;24.52;44.67;99130.25;5062578;28;9665;-68
2021/01/10 07:19:43;;;;;;;;;13.75;11.75;;;;;24.60;44.76;99130.06;5064476;28;10388;-68
2021/01/10 07:22:25;;;;;;;;;8.00;8.00;;;;;24.59;44.91;99120.41;5061678;28;9805;-69
2021/01/10 07:24:54;;;;;;;;;11.75;11.75;;;;;24.58;42.90;99107.28;5061686;28;9537;-68
2021/01/10 07:27:32;;;;;;;;;11.25;11.25;;;;;24.61;44.76;99106.59;5064079;28;9699;-68
2021/01/10 07:30:21;;;;;;;;;13.25;9.75;;;;;24.63;44.25;99109.72;5059010;28;9667;-69
2021/01/10 07:32:50;;;;;;;;;10.75;10.00;;;;;24.59;44.43;99111.53;5047755;28;9522;-67
2021/01/10 07:35:19;;;;;;;;;12.50;11.75;;;;;24.58;42.27;99101.88;5059509;28;10177;-68
2021/01/10 07:37:56;;;;;;;;;7.00;7.00;;;;;24.69;44.30;99103.69;5062722;28;10121;-68
2021/01/10 07:40:29;;;;;;;;;7.67;7.67;;;;;24.80;44.21;99101.22;5060668;28;9304;-68
2021/01/10 07:43:02;;;;;;;;;6.67;6.67;;;;;24.81;43.48;99099.28;5055735;28;9343;-68
2021/01/10 07:45:39;;;;;;;;;7.00;5.00;;;;;24.88;43.56;99104.84;5062168;28;9247;-68
2021/01/10 07:48:08;;;;;;;;;6.00;6.00;;;;;24.90;43.27;99097.97;5064472;28;9126;-67
2021/01/10 07:50:36;;;;;;;;;6.00;6.00;;;;;24.89;43.62;99082.13;5063909;28;9126;-67
2021/01/10 07:53:05;;;;;;;;;5.33;5.33;;;;;25.02;42.89;99088.97;5053412;28;9161;-67
2021/01/10 07:55:33;;;;;;;;;5.00;5.00;;;;;25.02;43.21;99072.78;5061656;28;9073;-68
2021/01/10 07:58:02;;;;;;;;;8.33;5.67;;;;;25.15;43.94;99086.94;5061191;28;9161;-68
2021/01/10 08:00:34;;;;;;;;;7.33;6.67;;;;;25.15;43.98;99082.31;5063358;28;9120;-68
2021/01/10 08:03:08;;;;;;;;;6.00;6.00;;;;;25.12;42.42;99085.72;5063672;28;9235;-68
2021/01/10 08:06:05;;;;;;;;;7.33;7.33;;;;;25.12;44.10;99080.31;5062717;28;9144;-68
2021/01/10 08:08:48;;;;;;;;;5.67;5.67;;;;;25.13;42.36;99071.09;5063237;28;9297;-68
2021/01/10 08:11:32;;;;;;;;;0.00;0.00;;;;;25.18;43.66;99072.72;5061516;28;9162;-68
2021/01/10 08:14:11;;;;;;;;;6.33;5.00;;;;;25.20;41.87;99076.63;5062924;28;9087;-68
2021/01/10 08:16:40;;;;;;;;;8.33;6.00;;;;;25.26;43.62;99066.31;5064079;28;9210;-68
2021/01/10 08:19:08;;;;;;;;;6.33;6.33;;;;;25.26;43.45;99050.91;5065170;28;9173;-68
2021/01/10 08:21:37;;;;;;;;;6.00;6.00;;;;;25.32;43.17;99065.69;5064980;28;8991;-68
2021/01/10 08:24:07;;;;;;;;;6.33;6.33;;;;;25.34;43.62;99063.41;5060030;28;9155;-68
2021/01/10 08:26:43;;;;;;;;;9.00;7.00;;;;;25.32;43.80;99054.09;5059316;28;9394;-68
2021/01/10 08:29:16;;;;;;;;;7.00;7.00;;;;;25.28;43.73;99059.44;5058646;28;9071;-68
2021/01/10 08:31:50;;;;;;;;;6.67;6.67;;;;;25.23;42.64;99057.03;5047062;28;9173;-68
2021/01/10 08:34:19;;;;;;;;;6.00;6.00;;;;;25.18;43.39;99049.22;5058956;28;9154;-68
2021/01/10 08:36:48;;;;;;;;;9.33;7.33;;;;;25.25;42.76;99049.34;5060159;28;9058;-68
2021/01/10 08:39:20;;;;;;;;;5.00;5.00;;;;;25.28;43.67;99051.34;5058775;28;9238;-68
2021/01/10 08:41:49;;;;;;;;;6.00;6.00;;;;;25.29;42.95;99052.13;5063378;28;9220;-68
2021/01/10 08:44:30;;;;;;;;;8.33;6.67;;;;;25.32;43.64;99054.88;5058016;28;9072;-68
2021/01/10 08:46:59;;;;;;;;;5.33;5.33;;;;;25.32;42.99;99049.47;5057006;28;8983;-68
2021/01/10 08:49:27;;;;;;;;;6.67;5.33;;;;;25.33;43.07;99053.75;5058157;28;9092;-68
2021/01/10 08:51:56;;;;;;;;;5.00;5.00;;;;;25.35;41.83;99048.00;5051368;28;9713;-68
2021/01/10 08:54:26;;;;;;;;;5.00;5.00;;;;;25.38;42.36;99041.88;5059126;28;9248;-69
2021/01/10 08:56:56;;;;;;;;;7.67;5.33;;;;;25.50;43.32;99051.72;5062766;28;8937;-68
2021/01/10 08:59:38;;;;;;;;;5.33;5.00;;;;;25.58;43.51;99046.09;5071645;28;8912;-68
2021/01/10 09:02:09;;;;;;;;;5.67;5.67;;;;;25.60;42.86;99048.44;5068207;28;9062;-68
2021/01/10 09:04:41;;;;;;;;;4.67;4.67;;;;;25.53;43.47;99048.31;5066354;28;8979;-68
2021/01/10 09:07:10;;;;;;;;;3.33;3.00;;;;;25.50;43.53;99055.22;5045657;28;8912;-68
2021/01/10 09:09:50;;;;;;;;;3.00;3.00;;;;;25.38;43.14;99051.91;5062272;28;9140;-69
2021/01/10 09:12:35;;;;;;;;;4.33;4.33;;;;;25.33;41.63;99045.66;5059061;28;8927;-69
2021/01/10 09:15:08;;;;;;;;;4.00;2.50;;;;;25.36;43.36;99044.16;5055474;28;8937;-69
2021/01/10 09:17:43;;;;;;;;;4.00;4.00;;;;;25.39;42.54;99048.84;5068833;28;8913;-69
2021/01/10 09:20:15;;;;;;;;;3.00;3.00;;;;;25.40;43.35;99044.22;5069014;28;8908;-68
2021/01/10 09:22:43;;;;;;;;;4.67;4.67;;;;;25.45;43.76;99047.41;5064732;28;8953;-68
2021/01/10 09:25:13;;;;;;;;;3.67;3.67;;;;;25.34;43.10;99033.72;5058557;28;9114;-68
2021/01/10 09:28:06;;;;;;;;;4.75;4.25;;;;;25.37;42.59;99053.81;5058806;28;8991;-68
2021/01/10 09:30:37;;;;;;;;;5.33;5.33;;;;;25.33;43.44;99051.03;5064581;28;8851;-68
2021/01/10 09:33:07;;;;;;;;;3.00;3.00;;;;;25.33;43.21;99050.25;5058448;28;8918;-68
2021/01/10 09:35:45;;;;;;;;;4.33;4.33;;;;;25.29;42.91;99044.00;5062811;28;8892;-68
2021/01/10 09:38:19;;;;;;;;;6.00;4.67;;;;;25.28;43.60;99054.03;5060780;28;9031;-67
2021/01/10 09:40:59;;;;;;;;;4.25;3.75;;;;;25.26;42.42;99058.22;5063499;28;8918;-68
2021/01/10 09:43:43;;;;;;;;;4.00;4.00;;;;;25.26;43.24;99056.31;5062813;28;9535;-67
2021/01/10 09:46:32;;;;;;;;;4.00;4.00;;;;;25.28;43.17;99058.66;5058747;28;9102;-69
2021/01/10 09:49:13;;;;;;;;;3.00;3.00;;;;;25.27;43.59;99063.28;5052517;28;9725;-68
2021/01/10 09:51:43;;;;;;;;;4.67;4.67;;;;;25.26;43.45;99061.72;5058104;28;9084;-68
2021/01/10 09:54:23;;;;;;;;;4.50;4.00;;;;;25.24;43.51;99063.97;5058555;28;8978;-68
2021/01/10 09:56:52;;;;;;;;;4.00;4.00;;;;;25.22;43.77;99066.25;5060542;28;8837;-67
2021/01/10 09:59:43;;;;;;;;;4.33;4.33;;;;;25.19;43.76;99066.19;5059514;28;9590;-69
2021/01/10 10:02:21;;;;;;;;;5.33;4.00;;;;;25.10;43.33;99063.69;5061018;28;9110;-69
2021/01/10 10:04:54;;;;;;;;;5.25;4.25;;;;;25.11;42.98;99070.66;5061455;28;8906;-68
2021/01/10 10:07:35;;;;;;;;;7.25;3.75;;;;;25.11;42.95;99064.47;5054469;28;8829;-68
2021/01/10 10:10:07;;;;;;;;;4.00;4.00;;;;;25.09;43.70;99067.53;5065132;28;8972;-68
2021/01/10 10:12:35;;;;;;;;;5.50;4.00;;;;;24.99;43.78;99058.09;5061137;28;9010;-68
2021/01/10 10:15:08;;;;;;;;;3.00;3.00;;;;;25.01;43.69;99069.31;5061030;28;8845;-68
2021/01/10 10:17:38;;;;;;;;;5.67;4.00;;;;;24.98;43.48;99070.00;5061557;28;8908;-67
2021/01/10 10:20:09;;;;;;;;;7.33;4.00;;;;;24.92;43.83;99079.50;5061395;28;9056;-67
2021/01/10 10:22:39;;;;;;;;;5.00;5.00;;;;;24.90;42.80;99076.38;5060299;28;9027;-68
2021/01/10 10:25:14;;;;;;;;;6.25;4.50;;;;;24.90;43.64;99072.88;5061367;28;8926;-68
2021/01/10 10:27:56;;;;;;;;;4.67;4.67;;;;;24.88;43.57;99077.84;5059324;28;8830;-67
2021/01/10 10:30:26;;;;;;;;;4.00;4.00;;;;;24.86;43.26;99078.22;5061792;28;9134;-68
2021/01/10 10:32:54;;;;;;;;;3.50;3.50;;;;;24.86;43.70;99080.13;5062662;28;9123;-68
2021/01/10 10:35:23;;;;;;;;;4.67;4.67;;;;;24.85;43.29;99084.75;5059578;28;8973;-69
2021/01/10 10:37:52;;;;;;;;;6.00;5.00;;;;;24.83;43.36;99089.72;5059050;28;8975;-67
2021/01/10 10:40:20;;;;;;;;;5.67;5.00;;;;;24.73;43.74;99074.06;5058319;28;9002;-70
2021/01/10 10:42:51;;;;;;;;;9.00;7.00;;;;;24.78;43.27;99097.28;5056462;28;9224;-68
2021/01/10 10:45:20;;;;;;;;;6.00;6.00;;;;;24.74;43.68;99091.81;5058014;28;9964;-69
2021/01/10 10:47:49;;;;;;;;;6.67;5.00;;;;;24.69;43.88;99095.59;5059368;28;9154;-69
2021/01/10 10:50:17;;;;;;;;;4.67;4.00;;;;;24.66;43.64;99096.31;5058938;28;9080;-68
2021/01/10 10:52:46;;;;;;;;;4.00;4.00;;;;;24.59;43.83;99098.06;5043923;28;9183;-68
2021/01/10 10:55:16;;;;;;;;;4.00;4.00;;;;;24.58;43.87;99107.28;5036067;28;9201;-68
2021/01/10 10:57:45;;;;;;;;;5.00;5.00;;;;;24.54;43.63;99106.41;5055013;28;9076;-68
2021/01/10 11:00:14;;;;;;;;;14.00;14.00;;;;;24.49;43.98;99104.78;5060352;28;9240;-69
2021/01/10 11:02:46;;;;;;;;;7.00;7.00;;;;;24.50;44.07;99117.13;5056171;28;9414;-69
2021/01/10 11:05:16;;;;;;;;;7.33;7.33;;;;;24.42;44.07;99109.22;5056409;28;9242;-69
2021/01/10 11:07:44;;;;;;;;;11.33;9.33;;;;;24.37;44.34;99105.66;5056641;28;9157;-72
2021/01/10 11:10:13;;;;;;;;;9.00;9.00;;;;;24.42;44.22;99128.09;5056658;28;9390;-69
2021/01/10 11:12:41;;;;;;;;;12.67;9.00;;;;;24.35;43.95;99124.09;5057809;28;9321;-69
2021/01/10 11:15:10;;;;;;;;;9.00;7.67;;;;;24.34;44.33;99130.63;5055666;28;9255;-70
2021/01/10 11:17:39;;;;;;;;;7.00;7.00;;;;;24.33;44.49;99131.75;5055986;28;9357;-71
2021/01/10 11:20:08;;;;;;;;;5.00;5.00;;;;;24.32;44.29;99135.56;5059738;28;9131;-71
2021/01/10 11:22:36;;;;;;;;;12.33;7.33;;;;;24.31;44.35;99133.22;5060292;28;9200;-71
2021/01/10 11:25:06;;;;;;;;;8.00;6.33;;;;;24.31;44.29;99149.41;5058426;28;9214;-71
2021/01/10 11:27:34;;;;;;;;;7.00;7.00;;;;;24.30;44.28;99145.91;5059428;28;9166;-69
2021/01/10 11:30:04;;;;;;;;;8.33;7.67;;;;;24.32;44.63;99148.28;5060066;28;9911;-69
2021/01/10 11:32:34;;;;;;;;;10.00;8.33;;;;;24.30;44.54;99153.22;5059952;28;9356;-70
2021/01/10 11:35:03;;;;;;;;;14.50;13.00;;;;;24.27;44.61;99157.41;5061279;28;9363;-69
2021/01/10 11:37:31;;;;;;;;;15.00;14.00;;;;;24.23;44.49;99163.81;5068746;28;9557;-69
2021/01/10 11:40:03;;;;;;;;;14.00;14.00;;;;;24.19;44.56;99169.09;5057760;28;9600;-68
2021/01/10 11:42:36;;;;;;;;;15.50;10.25;;;;;24.14;44.74;99172.06;5068766;28;9696;-68
2021/01/10 11:45:05;;;;;;;;;11.25;9.50;;;;;24.13;44.81;99180.47;5070155;28;9523;-68
2021/01/10 11:47:35;;;;;;;;;12.25;12.25;;;;;24.11;44.89;99185.44;5062753;28;9630;-69
2021/01/10 11:50:04;;;;;;;;;13.75;13.75;;;;;24.08;45.22;99190.38;5065442;28;9540;-68
2021/01/10 11:52:33;;;;;;;;;11.50;9.50;;;;;24.07;45.19;99199.59;5063241;28;9625;-69
2021/01/10 11:55:01;;;;;;;;;11.50;9.50;;;;;24.05;45.24;99198.38;5064162;28;9674;-70